Ilminster, United Kingdom
Current Conditions -  °F | °C
As of 4:50 PM on Wednesday 22 Oct 2014 (Local Time) from EGDY Reporting Station
Broken Clouds Broken Clouds  
Wind Chill: 13°   Ceiling: 4000
Heat Index: 13°   Visibility: 6mi
Dew Point:   Wind: 8mph
Humidity: 72%   Direction: 230°SW
Pressure: 30.27"   Gusts: NA
Location:  50.93°N, 2.91°W
Report Text: EGDY 221550Z 23007KT 9999 BKN040 BKN080 13/08 Q1025 BLU NOSIG
Loading
Personal Weather Stations






























Interactive Weather Map
Tropical Storm Tracking
New forecast layout! Learn more

10-Day Weather Forecast

Advertisements
Track Severe Weather on mobile